TAM8148 SBGR-LPPT
Flight info
| Callsign | TAM8148 |
|---|---|
| Flight time | N/A |
| Altitude | 33000 |
| Route | NUXEL UZ23 ILPIR UZ72 EDNES UN866 ARTIG/N0490F350 UN866 DEKON/N0485F340 UN866 NELTO/N0485F360 UN866 AMDOL/N0481F350 UN866 TENPA N866 YORGI/N0478F370 N866 GOMER/N0469F360 N866 KONBA UN866 BEXAL DCT LUVUP |
| Aircraft | B77W/H-SDE1E2E3FGHIJ2J3J4J5M1RWXY/LB1D1 |
Departure
| Time | 2026-05-07 15:29 |
|---|---|
| Airport | São Paulo/Guarulhos–Governor André Franco Montoro International Airport (SBGR) |
Arrival
| Time | N/A |
|---|---|
| Airport | Lisbon Humberto Delgado Airport (LPPT) |
| Time | Latitude | Longitude | Altitude | Speed | Heading |
|---|---|---|---|---|---|
| 2026-05-07 15:12 | -23.42736 | -46.47947 | 2469 ft | 0 kts | 265° |
| 2026-05-07 15:21 | -23.42734 | -46.47926 | 2469 ft | 3 kts | 265° |
| 2026-05-07 15:21 | -23.42733 | -46.47911 | 2469 ft | 3 kts | 264° |
| 2026-05-07 15:21 | -23.42733 | -46.47910 | 2469 ft | 3 kts | 263° |
| 2026-05-07 15:21 | -23.42730 | -46.47889 | 2469 ft | 3 kts | 261° |
| 2026-05-07 15:22 | -23.42727 | -46.47873 | 2469 ft | 1 kts | 208° |
| 2026-05-07 15:22 | -23.42719 | -46.47873 | 2474 ft | 1 kts | 188° |
| 2026-05-07 15:22 | -23.42717 | -46.47872 | 2474 ft | 0 kts | 182° |
| 2026-05-07 15:24 | -23.42718 | -46.47872 | 2469 ft | 1 kts | 182° |
| 2026-05-07 15:24 | -23.42781 | -46.47863 | 2472 ft | 18 kts | 170° |
| 2026-05-07 15:24 | -23.42883 | -46.47841 | 2474 ft | 10 kts | 167° |
| 2026-05-07 15:25 | -23.42949 | -46.47825 | 2472 ft | 10 kts | 167° |
| 2026-05-07 15:25 | -23.43014 | -46.47825 | 2474 ft | 10 kts | 205° |
| 2026-05-07 15:25 | -23.43049 | -46.47887 | 2470 ft | 10 kts | 255° |
| 2026-05-07 15:25 | -23.43068 | -46.47959 | 2475 ft | 10 kts | 254° |
| 2026-05-07 15:26 | -23.43089 | -46.48034 | 2474 ft | 11 kts | 254° |
| 2026-05-07 15:26 | -23.43111 | -46.48119 | 2473 ft | 12 kts | 254° |
| 2026-05-07 15:26 | -23.43135 | -46.48210 | 2475 ft | 12 kts | 253° |
| 2026-05-07 15:26 | -23.43160 | -46.48301 | 2476 ft | 12 kts | 253° |
| 2026-05-07 15:27 | -23.43202 | -46.48376 | 2477 ft | 12 kts | 201° |
| 2026-05-07 15:27 | -23.43272 | -46.48373 | 2476 ft | 10 kts | 167° |
| 2026-05-07 15:27 | -23.43345 | -46.48353 | 2473 ft | 13 kts | 165° |
| 2026-05-07 15:27 | -23.43408 | -46.48290 | 2469 ft | 17 kts | 91° |
| 2026-05-07 15:28 | -23.43353 | -46.48054 | 2472 ft | 59 kts | 73° |
| 2026-05-07 15:28 | -23.43162 | -46.47352 | 2466 ft | 133 kts | 73° |
| 2026-05-07 15:28 | -23.42833 | -46.46151 | 2469 ft | 196 kts | 72° |
| 2026-05-07 15:28 | -23.42450 | -46.44584 | 2839 ft | 220 kts | 69° |
| 2026-05-07 15:29 | -23.42010 | -46.43034 | 3805 ft | 218 kts | 68° |
| 2026-05-07 15:29 | -23.41514 | -46.41409 | 4404 ft | 226 kts | 66° |
| 2026-05-07 15:29 | -23.40967 | -46.39774 | 4812 ft | 240 kts | 67° |
| 2026-05-07 15:29 | -23.40396 | -46.37961 | 4994 ft | 261 kts | 69° |
| 2026-05-07 15:30 | -23.39844 | -46.36066 | 5635 ft | 263 kts | 66° |
| 2026-05-07 15:30 | -23.38990 | -46.34335 | 6241 ft | 261 kts | 53° |
| 2026-05-07 15:30 | -23.37966 | -46.32660 | 6834 ft | 268 kts | 54° |
| 2026-05-07 15:30 | -23.36941 | -46.30957 | 7528 ft | 271 kts | 54° |
| 2026-05-07 15:31 | -23.35907 | -46.29206 | 8133 ft | 277 kts | 54° |
| 2026-05-07 15:31 | -23.34868 | -46.27429 | 8810 ft | 279 kts | 55° |
| 2026-05-07 15:31 | -23.33830 | -46.25644 | 9535 ft | 280 kts | 55° |
| 2026-05-07 15:31 | -23.32781 | -46.23837 | 10155 ft | 284 kts | 55° |
| 2026-05-07 15:32 | -23.31718 | -46.22007 | 10520 ft | 299 kts | 56° |
| 2026-05-07 15:32 | -23.30551 | -46.19997 | 10663 ft | 321 kts | 56° |
| 2026-05-07 15:32 | -23.29323 | -46.17881 | 10827 ft | 343 kts | 56° |
| 2026-05-07 15:32 | -23.28026 | -46.15649 | 11001 ft | 362 kts | 56° |
| 2026-05-07 15:33 | -23.26660 | -46.13295 | 11489 ft | 372 kts | 57° |
| 2026-05-07 15:33 | -23.25249 | -46.10864 | 12131 ft | 378 kts | 57° |
| 2026-05-07 15:33 | -23.23854 | -46.08464 | 12810 ft | 382 kts | 57° |
| 2026-05-07 15:33 | -23.22418 | -46.06024 | 13455 ft | 383 kts | 54° |
| 2026-05-07 15:34 | -23.20534 | -46.03947 | 13875 ft | 392 kts | 35° |
| 2026-05-07 15:34 | -23.18078 | -46.02646 | 14477 ft | 394 kts | 20° |
| 2026-05-07 15:34 | -23.15462 | -46.01703 | 15048 ft | 398 kts | 19° |
| 2026-05-07 15:34 | -23.12817 | -46.00741 | 15612 ft | 401 kts | 18° |
| 2026-05-07 15:35 | -23.10076 | -46.00115 | 16119 ft | 407 kts | 8° |
| 2026-05-07 15:35 | -23.07246 | -45.99816 | 16692 ft | 410 kts | 6° |
| 2026-05-07 15:35 | -23.04394 | -45.99553 | 17341 ft | 412 kts | 6° |
| 2026-05-07 15:35 | -23.01524 | -45.99265 | 17871 ft | 418 kts | 6° |
| 2026-05-07 15:36 | -22.98620 | -45.98941 | 18426 ft | 421 kts | 6° |
| 2026-05-07 15:36 | -22.95697 | -45.98591 | 18934 ft | 425 kts | 6° |
| 2026-05-07 15:36 | -22.92737 | -45.98230 | 19376 ft | 430 kts | 6° |
| 2026-05-07 15:36 | -22.89787 | -45.97870 | 19855 ft | 434 kts | 6° |
| 2026-05-07 15:37 | -22.86787 | -45.97416 | 20322 ft | 438 kts | 10° |
| 2026-05-07 15:37 | -22.83783 | -45.96709 | 20797 ft | 443 kts | 13° |
| 2026-05-07 15:37 | -22.80780 | -45.95887 | 21261 ft | 448 kts | 13° |
| 2026-05-07 15:37 | -22.77742 | -45.95031 | 21683 ft | 453 kts | 13° |
| 2026-05-07 15:38 | -22.74670 | -45.94176 | 22103 ft | 458 kts | 13° |
| 2026-05-07 15:38 | -22.71564 | -45.93340 | 22573 ft | 462 kts | 12° |
| 2026-05-07 15:38 | -22.68424 | -45.92511 | 22958 ft | 468 kts | 12° |
| 2026-05-07 15:38 | -22.65244 | -45.91688 | 23437 ft | 470 kts | 11° |
| 2026-05-07 15:39 | -22.62058 | -45.90869 | 23859 ft | 474 kts | 11° |
| 2026-05-07 15:39 | -22.58824 | -45.90037 | 24146 ft | 479 kts | 11° |
| 2026-05-07 15:39 | -22.55580 | -45.89204 | 24599 ft | 480 kts | 12° |
| 2026-05-07 15:39 | -22.52324 | -45.88367 | 24969 ft | 483 kts | 12° |
| 2026-05-07 15:40 | -22.49029 | -45.87521 | 25280 ft | 488 kts | 12° |
| 2026-05-07 15:40 | -22.45719 | -45.86671 | 25685 ft | 490 kts | 12° |
| 2026-05-07 15:40 | -22.42393 | -45.85816 | 26050 ft | 493 kts | 12° |
| 2026-05-07 15:40 | -22.39085 | -45.84966 | 26383 ft | 497 kts | 12° |
| 2026-05-07 15:41 | -22.35671 | -45.84090 | 26710 ft | 500 kts | 12° |
| 2026-05-07 15:41 | -22.32267 | -45.83217 | 27030 ft | 504 kts | 12° |
| 2026-05-07 15:41 | -22.28878 | -45.82218 | 27304 ft | 508 kts | 20° |
| 2026-05-07 15:41 | -22.25771 | -45.80392 | 27519 ft | 512 kts | 38° |
| 2026-05-07 15:42 | -22.23058 | -45.77974 | 27768 ft | 514 kts | 40° |
| 2026-05-07 15:42 | -22.20312 | -45.75475 | 28040 ft | 518 kts | 40° |
| 2026-05-07 15:42 | -22.17533 | -45.72974 | 28340 ft | 520 kts | 40° |
| 2026-05-07 15:42 | -22.14732 | -45.70492 | 28662 ft | 523 kts | 39° |
| 2026-05-07 15:43 | -22.11899 | -45.68016 | 28949 ft | 525 kts | 39° |
| 2026-05-07 15:43 | -22.09215 | -45.65694 | 29203 ft | 528 kts | 39° |
| 2026-05-07 15:43 | -22.06342 | -45.63220 | 29509 ft | 530 kts | 39° |
| 2026-05-07 15:43 | -22.03461 | -45.60746 | 29925 ft | 529 kts | 39° |
| 2026-05-07 15:44 | -22.00586 | -45.58277 | 30324 ft | 528 kts | 39° |
| 2026-05-07 15:44 | -21.97705 | -45.55803 | 30661 ft | 528 kts | 39° |
| 2026-05-07 15:44 | -21.94831 | -45.53333 | 31023 ft | 528 kts | 39° |
| 2026-05-07 15:44 | -21.91961 | -45.50866 | 31364 ft | 528 kts | 39° |
| 2026-05-07 15:45 | -21.89089 | -45.48397 | 31695 ft | 528 kts | 39° |
| 2026-05-07 15:45 | -21.86223 | -45.45935 | 31997 ft | 528 kts | 39° |
| 2026-05-07 15:45 | -21.83352 | -45.43469 | 32302 ft | 528 kts | 39° |
| 2026-05-07 15:45 | -21.80514 | -45.41034 | 32610 ft | 528 kts | 39° |
| 2026-05-07 15:46 | -21.74761 | -45.36101 | 33033 ft | 532 kts | 39° |
| 2026-05-07 15:46 | -21.71864 | -45.33618 | 33082 ft | 533 kts | 39° |
| 2026-05-07 15:47 | -21.66087 | -45.28674 | 33080 ft | 529 kts | 39° |
| 2026-05-07 15:47 | -21.60344 | -45.23764 | 33098 ft | 526 kts | 39° |
| 2026-05-07 15:48 | -21.54619 | -45.18873 | 33095 ft | 526 kts | 39° |
| 2026-05-07 15:48 | -21.48890 | -45.13984 | 33100 ft | 526 kts | 39° |
| 2026-05-07 15:49 | -21.43155 | -45.09095 | 33095 ft | 526 kts | 39° |
| 2026-05-07 15:49 | -21.38380 | -45.05028 | 33097 ft | 527 kts | 39° |
| 2026-05-07 15:50 | -21.32629 | -45.00134 | 33098 ft | 528 kts | 39° |
| 2026-05-07 15:50 | -21.26867 | -44.95236 | 33094 ft | 529 kts | 39° |
| 2026-05-07 15:51 | -21.21098 | -44.90336 | 33096 ft | 529 kts | 39° |
| 2026-05-07 15:51 | -21.15322 | -44.85429 | 33096 ft | 529 kts | 40° |
| 2026-05-07 15:52 | -21.09563 | -44.80517 | 33094 ft | 529 kts | 40° |
| 2026-05-07 15:52 | -21.03793 | -44.75622 | 33094 ft | 529 kts | 39° |
| 2026-05-07 15:53 | -20.97810 | -44.71022 | 33099 ft | 529 kts | 36° |
| 2026-05-07 15:53 | -20.91803 | -44.66551 | 33095 ft | 529 kts | 37° |
| 2026-05-07 15:54 | -20.85807 | -44.61997 | 33101 ft | 528 kts | 37° |
| 2026-05-07 15:54 | -20.79827 | -44.57426 | 33100 ft | 528 kts | 37° |
| 2026-05-07 15:55 | -20.73841 | -44.52865 | 33101 ft | 528 kts | 37° |
| 2026-05-07 15:55 | -20.67847 | -44.48301 | 33094 ft | 528 kts | 37° |
| 2026-05-07 15:56 | -20.61870 | -44.43753 | 33099 ft | 528 kts | 37° |
| 2026-05-07 15:56 | -20.55888 | -44.39203 | 33099 ft | 528 kts | 37° |
| 2026-05-07 15:57 | -20.49938 | -44.34684 | 33098 ft | 528 kts | 37° |
| 2026-05-07 15:57 | -20.43951 | -44.30140 | 33102 ft | 528 kts | 37° |
| 2026-05-07 15:58 | -20.38022 | -44.25500 | 33095 ft | 528 kts | 39° |
| 2026-05-07 15:58 | -20.32147 | -44.20793 | 33098 ft | 528 kts | 39° |
| 2026-05-07 15:59 | -20.26263 | -44.16104 | 33098 ft | 529 kts | 39° |
| 2026-05-07 15:59 | -20.20359 | -44.11427 | 33098 ft | 529 kts | 39° |
| 2026-05-07 16:00 | -20.14454 | -44.06757 | 33109 ft | 529 kts | 39° |
| 2026-05-07 16:00 | -20.08546 | -44.02085 | 33139 ft | 529 kts | 39° |
| 2026-05-07 16:01 | -20.02628 | -43.97438 | 33150 ft | 529 kts | 39° |
| 2026-05-07 16:01 | -19.96701 | -43.92797 | 33182 ft | 529 kts | 38° |
| 2026-05-07 16:02 | -19.90821 | -43.88190 | 33191 ft | 529 kts | 39° |
| 2026-05-07 16:02 | -19.84890 | -43.83548 | 33179 ft | 529 kts | 38° |
| 2026-05-07 16:03 | -19.78832 | -43.79083 | 33162 ft | 531 kts | 36° |
| 2026-05-07 16:03 | -19.72700 | -43.74715 | 33171 ft | 531 kts | 36° |
| 2026-05-07 16:04 | -19.66573 | -43.70318 | 33151 ft | 531 kts | 37° |
| 2026-05-07 16:04 | -19.60467 | -43.65901 | 33143 ft | 531 kts | 37° |
| 2026-05-07 16:05 | -19.54371 | -43.61488 | 33123 ft | 530 kts | 37° |
| 2026-05-07 16:05 | -19.48272 | -43.57082 | 33093 ft | 530 kts | 37° |
| 2026-05-07 16:06 | -19.42226 | -43.52720 | 33098 ft | 530 kts | 37° |
| 2026-05-07 16:06 | -19.36130 | -43.48324 | 33092 ft | 530 kts | 37° |
| 2026-05-07 16:07 | -19.29746 | -43.44404 | 33097 ft | 532 kts | 26° |
| 2026-05-07 16:07 | -19.22794 | -43.41664 | 33099 ft | 534 kts | 19° |
| 2026-05-07 16:08 | -19.15707 | -43.39276 | 33090 ft | 535 kts | 19° |
| 2026-05-07 16:08 | -19.08628 | -43.36841 | 33089 ft | 535 kts | 19° |
| 2026-05-07 16:09 | -19.01560 | -43.34367 | 33086 ft | 535 kts | 19° |
| 2026-05-07 16:09 | -18.94478 | -43.31886 | 33087 ft | 536 kts | 19° |
| 2026-05-07 16:10 | -18.87406 | -43.29416 | 33085 ft | 536 kts | 19° |
| 2026-05-07 16:10 | -18.80325 | -43.26958 | 33085 ft | 536 kts | 19° |
| 2026-05-07 16:11 | -18.74429 | -43.24921 | 33080 ft | 536 kts | 19° |
| 2026-05-07 16:11 | -18.70353 | -43.23511 | 33082 ft | 536 kts | 19° |
| 2026-05-07 16:12 | -18.63260 | -43.21106 | 33086 ft | 535 kts | 18° |
| 2026-05-07 16:12 | -18.56146 | -43.18789 | 33089 ft | 535 kts | 18° |
| 2026-05-07 16:13 | -18.49035 | -43.16465 | 33088 ft | 535 kts | 18° |
| 2026-05-07 16:13 | -18.41923 | -43.14127 | 33088 ft | 535 kts | 18° |
| 2026-05-07 16:14 | -18.34877 | -43.11633 | 33085 ft | 534 kts | 21° |
| 2026-05-07 16:14 | -18.27909 | -43.08869 | 33092 ft | 535 kts | 22° |
| 2026-05-07 16:15 | -18.21039 | -43.06122 | 33093 ft | 535 kts | 22° |
| 2026-05-07 16:15 | -18.14118 | -43.03386 | 33078 ft | 535 kts | 22° |
| 2026-05-07 16:16 | -18.07147 | -43.00651 | 33079 ft | 534 kts | 22° |
| 2026-05-07 16:16 | -18.00192 | -42.97925 | 33090 ft | 533 kts | 22° |
| 2026-05-07 16:17 | -17.93236 | -42.95199 | 33078 ft | 533 kts | 22° |
| 2026-05-07 16:17 | -17.86282 | -42.92475 | 33088 ft | 534 kts | 22° |
| 2026-05-07 16:18 | -17.79311 | -42.89746 | 33076 ft | 535 kts | 22° |
| 2026-05-07 16:18 | -17.72331 | -42.87016 | 33086 ft | 535 kts | 21° |
| 2026-05-07 16:19 | -17.65394 | -42.84305 | 33075 ft | 536 kts | 21° |
| 2026-05-07 16:19 | -17.58391 | -42.81571 | 33077 ft | 536 kts | 21° |
| 2026-05-07 16:20 | -17.51389 | -42.78839 | 33067 ft | 536 kts | 21° |
| 2026-05-07 16:20 | -17.44398 | -42.76116 | 33062 ft | 536 kts | 21° |
| 2026-05-07 16:21 | -17.37408 | -42.73404 | 33066 ft | 536 kts | 21° |
| 2026-05-07 16:21 | -17.30408 | -42.70692 | 33061 ft | 536 kts | 21° |
| 2026-05-07 16:22 | -17.23424 | -42.67986 | 33060 ft | 536 kts | 21° |
| 2026-05-07 16:22 | -17.16693 | -42.65379 | 33061 ft | 535 kts | 21° |
| 2026-05-07 16:23 | -17.09661 | -42.62657 | 33057 ft | 535 kts | 21° |
| 2026-05-07 16:23 | -17.02719 | -42.59973 | 33063 ft | 536 kts | 21° |
| 2026-05-07 16:24 | -16.95726 | -42.57271 | 33059 ft | 536 kts | 21° |
| 2026-05-07 16:24 | -16.89910 | -42.55026 | 33052 ft | 536 kts | 21° |
| 2026-05-07 16:25 | -16.84153 | -42.52804 | 33052 ft | 535 kts | 21° |
| 2026-05-07 16:25 | -16.77270 | -42.50151 | 33041 ft | 535 kts | 21° |
| 2026-05-07 16:26 | -16.70288 | -42.47461 | 33039 ft | 534 kts | 21° |
| 2026-05-07 16:26 | -16.63309 | -42.44774 | 33061 ft | 534 kts | 21° |
| 2026-05-07 16:27 | -16.56375 | -42.42122 | 33045 ft | 535 kts | 21° |
| 2026-05-07 16:27 | -16.49381 | -42.39433 | 33051 ft | 536 kts | 21° |
| 2026-05-07 16:28 | -16.42387 | -42.36732 | 33054 ft | 536 kts | 21° |
| 2026-05-07 16:28 | -16.35401 | -42.34039 | 33052 ft | 535 kts | 21° |
| 2026-05-07 16:29 | -16.28419 | -42.31352 | 33053 ft | 534 kts | 21° |
| 2026-05-07 16:29 | -16.21448 | -42.28671 | 33055 ft | 534 kts | 21° |
| 2026-05-07 16:30 | -16.14506 | -42.25913 | 33055 ft | 533 kts | 26° |
| 2026-05-07 16:30 | -16.07877 | -42.22578 | 33062 ft | 532 kts | 28° |
| 2026-05-07 16:31 | -16.01248 | -42.19151 | 33060 ft | 532 kts | 28° |
| 2026-05-07 16:31 | -15.94594 | -42.15742 | 33052 ft | 533 kts | 27° |
| 2026-05-07 16:32 | -15.87935 | -42.12366 | 33063 ft | 533 kts | 27° |
| 2026-05-07 16:32 | -15.81270 | -42.08996 | 33061 ft | 533 kts | 27° |
| 2026-05-07 16:33 | -15.74606 | -42.05629 | 33063 ft | 532 kts | 27° |
| 2026-05-07 16:33 | -15.67945 | -42.02264 | 33056 ft | 532 kts | 27° |
| 2026-05-07 16:34 | -15.61287 | -41.98900 | 33065 ft | 532 kts | 27° |
| 2026-05-07 16:34 | -15.54624 | -41.95537 | 33063 ft | 532 kts | 27° |
| 2026-05-07 16:35 | -15.47959 | -41.92176 | 33055 ft | 532 kts | 27° |
| 2026-05-07 16:35 | -15.41504 | -41.88923 | 33065 ft | 532 kts | 27° |
| 2026-05-07 16:36 | -15.34886 | -41.85590 | 33050 ft | 532 kts | 27° |
| 2026-05-07 16:36 | -15.28222 | -41.82237 | 33061 ft | 532 kts | 27° |
| 2026-05-07 16:37 | -15.21556 | -41.78884 | 33046 ft | 532 kts | 27° |
| 2026-05-07 16:37 | -15.14882 | -41.75530 | 33056 ft | 532 kts | 26° |
| 2026-05-07 16:38 | -15.08218 | -41.72184 | 33046 ft | 532 kts | 26° |
| 2026-05-07 16:38 | -15.01557 | -41.68841 | 33045 ft | 532 kts | 26° |
| 2026-05-07 16:39 | -14.94897 | -41.65501 | 33041 ft | 532 kts | 26° |
| 2026-05-07 16:39 | -14.89358 | -41.62726 | 33038 ft | 532 kts | 26° |
| 2026-05-07 16:40 | -14.82695 | -41.59388 | 33038 ft | 532 kts | 26° |
| 2026-05-07 16:40 | -14.76075 | -41.56075 | 33020 ft | 532 kts | 26° |
| 2026-05-07 16:41 | -14.69406 | -41.52739 | 33028 ft | 532 kts | 26° |
| 2026-05-07 16:41 | -14.62742 | -41.49409 | 33027 ft | 533 kts | 26° |
| 2026-05-07 16:42 | -14.56063 | -41.46072 | 33018 ft | 533 kts | 26° |
| 2026-05-07 16:42 | -14.49378 | -41.42736 | 33015 ft | 533 kts | 26° |
| 2026-05-07 16:43 | -14.42697 | -41.39404 | 33016 ft | 533 kts | 26° |
| 2026-05-07 16:43 | -14.36014 | -41.36072 | 33013 ft | 534 kts | 26° |
| 2026-05-07 16:44 | -14.29331 | -41.32743 | 33017 ft | 534 kts | 26° |
| 2026-05-07 16:44 | -14.22643 | -41.29414 | 33013 ft | 534 kts | 26° |
| 2026-05-07 16:45 | -14.15955 | -41.26086 | 33015 ft | 533 kts | 26° |
| 2026-05-07 16:45 | -14.09268 | -41.22761 | 33016 ft | 533 kts | 26° |
| 2026-05-07 16:46 | -14.02622 | -41.19459 | 33018 ft | 533 kts | 26° |
| 2026-05-07 16:46 | -13.95937 | -41.16139 | 33014 ft | 533 kts | 26° |
| 2026-05-07 16:47 | -13.89252 | -41.12821 | 33019 ft | 533 kts | 26° |
| 2026-05-07 16:47 | -13.82559 | -41.09507 | 33020 ft | 533 kts | 25° |
| 2026-05-07 16:48 | -13.75868 | -41.06204 | 33025 ft | 533 kts | 25° |
| 2026-05-07 16:48 | -13.69174 | -41.02899 | 33022 ft | 534 kts | 25° |
| 2026-05-07 16:49 | -13.62480 | -40.99595 | 33022 ft | 534 kts | 25° |
| 2026-05-07 16:49 | -13.55785 | -40.96293 | 33026 ft | 534 kts | 25° |
| 2026-05-07 16:50 | -13.49086 | -40.92989 | 33023 ft | 534 kts | 25° |
| 2026-05-07 16:50 | -13.42387 | -40.89688 | 33019 ft | 534 kts | 25° |
| 2026-05-07 16:51 | -13.35724 | -40.86407 | 33021 ft | 534 kts | 25° |
| 2026-05-07 16:51 | -13.29019 | -40.83108 | 33017 ft | 534 kts | 25° |
| 2026-05-07 16:52 | -13.22313 | -40.79809 | 33005 ft | 534 kts | 25° |
| 2026-05-07 16:52 | -13.15613 | -40.76516 | 33007 ft | 534 kts | 25° |
| 2026-05-07 16:53 | -13.08908 | -40.73215 | 33009 ft | 534 kts | 25° |
| 2026-05-07 16:53 | -13.02203 | -40.69910 | 33005 ft | 534 kts | 25° |
| 2026-05-07 16:54 | -12.95502 | -40.66609 | 33004 ft | 534 kts | 25° |
| 2026-05-07 16:54 | -12.88798 | -40.63310 | 33006 ft | 534 kts | 25° |
| 2026-05-07 16:55 | -12.82088 | -40.60010 | 33000 ft | 534 kts | 25° |
| 2026-05-07 16:55 | -12.75380 | -40.56712 | 33006 ft | 534 kts | 25° |
| 2026-05-07 16:56 | -12.68673 | -40.53418 | 33004 ft | 534 kts | 25° |
| 2026-05-07 16:56 | -12.58612 | -40.48482 | 33006 ft | 535 kts | 25° |
| 2026-05-07 16:57 | -12.51938 | -40.45208 | 32998 ft | 535 kts | 25° |
| 2026-05-07 16:57 | -12.45224 | -40.41917 | 33001 ft | 535 kts | 25° |
| 2026-05-07 16:58 | -12.38518 | -40.38632 | 33005 ft | 534 kts | 25° |
| 2026-05-07 16:58 | -12.31815 | -40.35349 | 33006 ft | 534 kts | 25° |
| 2026-05-07 16:59 | -12.25108 | -40.32067 | 33010 ft | 534 kts | 25° |
| 2026-05-07 16:59 | -12.18407 | -40.28789 | 33008 ft | 534 kts | 25° |
| 2026-05-07 17:00 | -12.11710 | -40.25515 | 33007 ft | 534 kts | 25° |
| 2026-05-07 17:00 | -12.05009 | -40.22241 | 33011 ft | 534 kts | 25° |
| 2026-05-07 17:01 | -11.98299 | -40.18965 | 33011 ft | 534 kts | 25° |
| 2026-05-07 17:01 | -11.91583 | -40.15687 | 33009 ft | 535 kts | 25° |
| 2026-05-07 17:02 | -11.84870 | -40.12413 | 33008 ft | 534 kts | 24° |
| 2026-05-07 17:02 | -11.78166 | -40.09148 | 33010 ft | 534 kts | 24° |
| 2026-05-07 17:03 | -11.71503 | -40.05907 | 32999 ft | 535 kts | 24° |
| 2026-05-07 17:03 | -11.64782 | -40.02623 | 33009 ft | 536 kts | 24° |
| 2026-05-07 17:04 | -11.58054 | -39.99348 | 32996 ft | 536 kts | 24° |
| 2026-05-07 17:04 | -11.51321 | -39.96081 | 32998 ft | 535 kts | 24° |
| 2026-05-07 17:05 | -11.44596 | -39.92820 | 32988 ft | 535 kts | 24° |
| 2026-05-07 17:05 | -11.37878 | -39.89563 | 32996 ft | 535 kts | 24° |
| 2026-05-07 17:06 | -11.31158 | -39.86305 | 32980 ft | 534 kts | 24° |
| 2026-05-07 17:06 | -11.24446 | -39.83053 | 32984 ft | 533 kts | 24° |
| 2026-05-07 17:07 | -11.17745 | -39.79808 | 32980 ft | 533 kts | 24° |
| 2026-05-07 17:07 | -11.11055 | -39.76571 | 32976 ft | 532 kts | 24° |
| 2026-05-07 17:08 | -11.04366 | -39.73335 | 32975 ft | 532 kts | 24° |
| 2026-05-07 17:08 | -10.97722 | -39.70123 | 32973 ft | 532 kts | 24° |
| 2026-05-07 17:09 | -10.91036 | -39.66892 | 32967 ft | 532 kts | 24° |
| 2026-05-07 17:09 | -10.84346 | -39.63661 | 32969 ft | 532 kts | 24° |
| 2026-05-07 17:10 | -10.77652 | -39.60429 | 32964 ft | 532 kts | 24° |
| 2026-05-07 17:10 | -10.70966 | -39.57202 | 32967 ft | 532 kts | 24° |
| 2026-05-07 17:11 | -10.64273 | -39.53974 | 32966 ft | 532 kts | 24° |
| 2026-05-07 17:11 | -10.57581 | -39.50748 | 32959 ft | 532 kts | 24° |
| 2026-05-07 17:12 | -10.50888 | -39.47523 | 32968 ft | 532 kts | 24° |
| 2026-05-07 17:12 | -10.44199 | -39.44300 | 32956 ft | 531 kts | 24° |
| 2026-05-07 17:13 | -10.37527 | -39.41090 | 32964 ft | 530 kts | 23° |
| 2026-05-07 17:13 | -10.30863 | -39.37889 | 32962 ft | 529 kts | 23° |
| 2026-05-07 17:14 | -10.24256 | -39.34715 | 32965 ft | 529 kts | 23° |
| 2026-05-07 17:14 | -10.17598 | -39.31515 | 32957 ft | 528 kts | 23° |
| 2026-05-07 17:15 | -10.10957 | -39.28322 | 32962 ft | 528 kts | 23° |
| 2026-05-07 17:15 | -10.04316 | -39.25131 | 32960 ft | 528 kts | 23° |
| 2026-05-07 17:16 | -9.97679 | -39.21943 | 32958 ft | 528 kts | 23° |
| 2026-05-07 17:16 | -9.91043 | -39.18757 | 32944 ft | 528 kts | 23° |
| 2026-05-07 17:17 | -9.84407 | -39.15575 | 32956 ft | 528 kts | 23° |
| 2026-05-07 17:17 | -9.77737 | -39.12467 | 32937 ft | 527 kts | 22° |
| 2026-05-07 17:18 | -9.71057 | -39.09405 | 32946 ft | 527 kts | 22° |
| 2026-05-07 17:18 | -9.64382 | -39.06335 | 32937 ft | 526 kts | 22° |
| 2026-05-07 17:19 | -9.57719 | -39.03259 | 32938 ft | 526 kts | 22° |
| 2026-05-07 17:19 | -9.51058 | -39.00183 | 32940 ft | 526 kts | 22° |
| 2026-05-07 17:20 | -9.44408 | -38.97113 | 32939 ft | 525 kts | 22° |
| 2026-05-07 17:20 | -9.37762 | -38.94048 | 32938 ft | 525 kts | 22° |
| 2026-05-07 17:21 | -9.31160 | -38.91004 | 32936 ft | 524 kts | 22° |
| 2026-05-07 17:21 | -9.24527 | -38.87947 | 32933 ft | 523 kts | 22° |
| 2026-05-07 17:22 | -9.17893 | -38.84891 | 32933 ft | 523 kts | 22° |
| 2026-05-07 17:22 | -9.11274 | -38.81843 | 32931 ft | 522 kts | 22° |
| 2026-05-07 17:23 | -9.04672 | -38.78804 | 32928 ft | 521 kts | 22° |
| 2026-05-07 17:23 | -8.98074 | -38.75768 | 32927 ft | 520 kts | 22° |
| 2026-05-07 17:24 | -8.91486 | -38.72737 | 32927 ft | 520 kts | 22° |
| 2026-05-07 17:24 | -8.84958 | -38.69735 | 32949 ft | 513 kts | 20° |
| 2026-05-07 17:25 | -8.78578 | -38.66804 | 32909 ft | 497 kts | 20° |
| 2026-05-07 17:25 | -8.72266 | -38.63915 | 32932 ft | 499 kts | 20° |
| 2026-05-07 17:26 | -8.65917 | -38.61006 | 32931 ft | 503 kts | 20° |
| 2026-05-07 17:26 | -8.59531 | -38.58078 | 32926 ft | 505 kts | 20° |
| 2026-05-07 17:27 | -8.53131 | -38.55140 | 32919 ft | 506 kts | 20° |
| 2026-05-07 17:27 | -8.46723 | -38.52186 | 32917 ft | 505 kts | 20° |
| 2026-05-07 17:28 | -8.40367 | -38.49256 | 32916 ft | 504 kts | 20° |
| 2026-05-07 17:28 | -8.33991 | -38.46320 | 32913 ft | 503 kts | 20° |
| 2026-05-07 17:29 | -8.27626 | -38.43391 | 32919 ft | 502 kts | 20° |
| 2026-05-07 17:29 | -8.21272 | -38.40476 | 32920 ft | 501 kts | 20° |
| 2026-05-07 17:30 | -8.15996 | -38.38057 | 32918 ft | 500 kts | 20° |
| 2026-05-07 17:30 | -8.09661 | -38.35154 | 32917 ft | 500 kts | 20° |
| 2026-05-07 17:31 | -8.03334 | -38.32254 | 32923 ft | 500 kts | 20° |
| 2026-05-07 17:31 | -7.97005 | -38.29354 | 32924 ft | 500 kts | 20° |
| 2026-05-07 17:32 | -7.90672 | -38.26453 | 32921 ft | 500 kts | 20° |
| 2026-05-07 17:32 | -7.84332 | -38.23549 | 32918 ft | 500 kts | 20° |
| 2026-05-07 17:33 | -7.78001 | -38.20651 | 32922 ft | 500 kts | 20° |
| 2026-05-07 17:33 | -7.71661 | -38.17756 | 32920 ft | 500 kts | 20° |
| 2026-05-07 17:34 | -7.65314 | -38.14866 | 32920 ft | 501 kts | 20° |
| 2026-05-07 17:34 | -7.58968 | -38.11975 | 32912 ft | 501 kts | 20° |
| 2026-05-07 17:35 | -7.52663 | -38.09104 | 32914 ft | 500 kts | 20° |
| 2026-05-07 17:35 | -7.46319 | -38.06215 | 32917 ft | 500 kts | 20° |
| 2026-05-07 17:36 | -7.39994 | -38.03335 | 32908 ft | 499 kts | 20° |
| 2026-05-07 17:36 | -7.33668 | -38.00456 | 32904 ft | 498 kts | 20° |
| 2026-05-07 17:37 | -7.27354 | -37.97583 | 32906 ft | 497 kts | 20° |
| 2026-05-07 17:37 | -7.21052 | -37.94717 | 32902 ft | 497 kts | 21° |
| 2026-05-07 17:38 | -7.14753 | -37.91851 | 32908 ft | 496 kts | 21° |
| 2026-05-07 17:38 | -7.08462 | -37.88981 | 32899 ft | 496 kts | 21° |
| 2026-05-07 17:39 | -7.02184 | -37.86113 | 32909 ft | 496 kts | 21° |
| 2026-05-07 17:39 | -6.95901 | -37.83244 | 32901 ft | 496 kts | 21° |
| 2026-05-07 17:40 | -6.89616 | -37.80377 | 32898 ft | 496 kts | 21° |
| 2026-05-07 17:40 | -6.83333 | -37.77510 | 32896 ft | 496 kts | 21° |
| 2026-05-07 17:41 | -6.77088 | -37.74666 | 32908 ft | 496 kts | 21° |
| 2026-05-07 17:41 | -6.70801 | -37.71810 | 32894 ft | 496 kts | 21° |
| 2026-05-07 17:42 | -6.64507 | -37.68952 | 32891 ft | 496 kts | 21° |
| 2026-05-07 17:42 | -6.58213 | -37.66092 | 32907 ft | 496 kts | 21° |
| 2026-05-07 17:43 | -6.51918 | -37.63233 | 32903 ft | 496 kts | 21° |
| 2026-05-07 17:43 | -6.45629 | -37.60377 | 32896 ft | 496 kts | 21° |
| 2026-05-07 17:44 | -6.39340 | -37.57522 | 32900 ft | 496 kts | 21° |
| 2026-05-07 17:44 | -6.33056 | -37.54669 | 32900 ft | 496 kts | 21° |
| 2026-05-07 17:45 | -6.26762 | -37.51813 | 32905 ft | 495 kts | 21° |
| 2026-05-07 17:45 | -6.20525 | -37.48984 | 32890 ft | 495 kts | 21° |
| 2026-05-07 17:46 | -6.14255 | -37.46140 | 32895 ft | 494 kts | 21° |
| 2026-05-07 17:46 | -6.07994 | -37.43301 | 32888 ft | 493 kts | 22° |
| 2026-05-07 17:47 | -6.01743 | -37.40467 | 32892 ft | 492 kts | 22° |
| 2026-05-07 17:47 | -5.95507 | -37.37653 | 32893 ft | 491 kts | 22° |
| 2026-05-07 17:48 | -5.89276 | -37.34844 | 32906 ft | 491 kts | 22° |
| 2026-05-07 17:48 | -5.83047 | -37.32034 | 32892 ft | 490 kts | 22° |
| 2026-05-07 17:49 | -5.76828 | -37.29229 | 32888 ft | 489 kts | 22° |
| 2026-05-07 17:49 | -5.70637 | -37.26411 | 32887 ft | 488 kts | 22° |
| 2026-05-07 17:50 | -5.64461 | -37.23572 | 32883 ft | 488 kts | 22° |
| 2026-05-07 17:50 | -5.58294 | -37.20741 | 32886 ft | 487 kts | 22° |
| 2026-05-07 17:51 | -5.52122 | -37.17913 | 32891 ft | 488 kts | 22° |
| 2026-05-07 17:51 | -5.45940 | -37.15082 | 32886 ft | 488 kts | 22° |
| 2026-05-07 17:52 | -5.39788 | -37.12277 | 32885 ft | 489 kts | 22° |
| 2026-05-07 17:52 | -5.33586 | -37.09455 | 32889 ft | 489 kts | 22° |
| 2026-05-07 17:53 | -5.27375 | -37.06628 | 32887 ft | 489 kts | 22° |
| 2026-05-07 17:53 | -5.21178 | -37.03806 | 32885 ft | 489 kts | 22° |
| 2026-05-07 17:54 | -5.14976 | -37.00983 | 32895 ft | 489 kts | 22° |
| 2026-05-07 17:54 | -5.08763 | -36.98155 | 32878 ft | 490 kts | 22° |
| 2026-05-07 17:55 | -5.02553 | -36.95328 | 32879 ft | 489 kts | 23° |
| 2026-05-07 17:55 | -4.96362 | -36.92511 | 32889 ft | 489 kts | 23° |
| 2026-05-07 17:56 | -4.90215 | -36.89705 | 32890 ft | 488 kts | 23° |
| 2026-05-07 17:56 | -4.84036 | -36.86876 | 32891 ft | 488 kts | 23° |
| 2026-05-07 17:57 | -4.78897 | -36.84524 | 32889 ft | 488 kts | 23° |
| 2026-05-07 17:57 | -4.71669 | -36.81219 | 32893 ft | 488 kts | 23° |
| 2026-05-07 17:58 | -4.65486 | -36.78395 | 32890 ft | 488 kts | 23° |
| 2026-05-07 17:58 | -4.59301 | -36.75576 | 32892 ft | 489 kts | 23° |
| 2026-05-07 17:59 | -4.53099 | -36.72750 | 32891 ft | 489 kts | 23° |
| 2026-05-07 17:59 | -4.46897 | -36.69923 | 32891 ft | 490 kts | 23° |
| 2026-05-07 18:00 | -4.40694 | -36.67095 | 32889 ft | 490 kts | 23° |
| 2026-05-07 18:00 | -4.34480 | -36.64263 | 32892 ft | 491 kts | 23° |
| 2026-05-07 18:01 | -4.28265 | -36.61431 | 32892 ft | 491 kts | 23° |
| 2026-05-07 18:01 | -4.22047 | -36.58598 | 32892 ft | 491 kts | 23° |
| 2026-05-07 18:02 | -4.12759 | -36.54368 | 32891 ft | 491 kts | 23° |
| 2026-05-07 18:03 | -4.06539 | -36.51539 | 32900 ft | 491 kts | 23° |
| 2026-05-07 18:03 | -4.00319 | -36.48711 | 32900 ft | 491 kts | 23° |
| 2026-05-07 18:04 | -3.94091 | -36.45876 | 32891 ft | 491 kts | 23° |
| 2026-05-07 18:04 | -3.87875 | -36.43043 | 32903 ft | 491 kts | 23° |
| 2026-05-07 18:05 | -3.81647 | -36.40212 | 32897 ft | 491 kts | 23° |
| 2026-05-07 18:05 | -3.75423 | -36.37377 | 32897 ft | 491 kts | 23° |
| 2026-05-07 18:06 | -3.69243 | -36.34562 | 32905 ft | 491 kts | 23° |
| 2026-05-07 18:06 | -3.63010 | -36.31726 | 32898 ft | 491 kts | 23° |
| 2026-05-07 18:07 | -3.56770 | -36.28894 | 32900 ft | 492 kts | 24° |
| 2026-05-07 18:07 | -3.50534 | -36.26055 | 32899 ft | 492 kts | 24° |
| 2026-05-07 18:08 | -3.44306 | -36.23222 | 32904 ft | 492 kts | 24° |
| 2026-05-07 18:08 | -3.38105 | -36.20402 | 32907 ft | 493 kts | 24° |
| 2026-05-07 18:09 | -3.31862 | -36.17565 | 32906 ft | 493 kts | 24° |
| 2026-05-07 18:09 | -3.25611 | -36.14723 | 32907 ft | 493 kts | 24° |
| 2026-05-07 18:10 | -3.19361 | -36.11883 | 32908 ft | 493 kts | 24° |
| 2026-05-07 18:10 | -3.13102 | -36.09040 | 32907 ft | 494 kts | 24° |
| 2026-05-07 18:11 | -3.06846 | -36.06197 | 32911 ft | 494 kts | 24° |
| 2026-05-07 18:11 | -3.00581 | -36.03352 | 32912 ft | 494 kts | 24° |
| 2026-05-07 18:12 | -2.94319 | -36.00508 | 32911 ft | 494 kts | 24° |
| 2026-05-07 18:12 | -2.88093 | -35.97681 | 32911 ft | 494 kts | 24° |
| 2026-05-07 18:13 | -2.81830 | -35.94837 | 32914 ft | 494 kts | 24° |
| 2026-05-07 18:13 | -2.75565 | -35.91992 | 32912 ft | 494 kts | 24° |
| 2026-05-07 18:14 | -2.69294 | -35.89146 | 32917 ft | 494 kts | 24° |
| 2026-05-07 18:14 | -2.63038 | -35.86306 | 32915 ft | 494 kts | 24° |
| 2026-05-07 18:15 | -2.56858 | -35.83501 | 32909 ft | 492 kts | 24° |
| 2026-05-07 18:15 | -2.50644 | -35.80681 | 32912 ft | 488 kts | 24° |
| 2026-05-07 18:16 | -2.44530 | -35.77907 | 32908 ft | 484 kts | 24° |
| 2026-05-07 18:16 | -2.38412 | -35.75131 | 32908 ft | 481 kts | 24° |
| 2026-05-07 18:17 | -2.32319 | -35.72367 | 32919 ft | 481 kts | 25° |
| 2026-05-07 18:17 | -2.26217 | -35.69599 | 32923 ft | 482 kts | 25° |
| 2026-05-07 18:18 | -2.20098 | -35.66825 | 32929 ft | 484 kts | 25° |
| 2026-05-07 18:18 | -2.14983 | -35.64505 | 32916 ft | 487 kts | 25° |
| 2026-05-07 18:19 | -2.08804 | -35.61702 | 32924 ft | 488 kts | 25° |
| 2026-05-07 18:19 | -2.02599 | -35.58888 | 32928 ft | 490 kts | 25° |
| 2026-05-07 18:20 | -1.96364 | -35.56061 | 32915 ft | 494 kts | 25° |
| 2026-05-07 18:20 | -1.90083 | -35.53211 | 32926 ft | 497 kts | 24° |
| 2026-05-07 18:21 | -1.83749 | -35.50342 | 32926 ft | 502 kts | 24° |
| 2026-05-07 18:21 | -1.77366 | -35.47447 | 32923 ft | 506 kts | 24° |
| 2026-05-07 18:22 | -1.71031 | -35.44332 | 32926 ft | 509 kts | 28° |
| 2026-05-07 18:22 | -1.64812 | -35.40900 | 32927 ft | 511 kts | 29° |
| 2026-05-07 18:23 | -1.58592 | -35.37441 | 32924 ft | 511 kts | 29° |
| 2026-05-07 18:23 | -1.52378 | -35.34010 | 32919 ft | 510 kts | 29° |
| 2026-05-07 18:24 | -1.46175 | -35.30603 | 32913 ft | 507 kts | 29° |
| 2026-05-07 18:24 | -1.40041 | -35.27239 | 32918 ft | 505 kts | 29° |
| 2026-05-07 18:25 | -1.33880 | -35.23859 | 32919 ft | 504 kts | 29° |
| 2026-05-07 18:25 | -1.27747 | -35.20493 | 32917 ft | 502 kts | 29° |
| 2026-05-07 18:26 | -1.21621 | -35.17131 | 32919 ft | 502 kts | 29° |
| 2026-05-07 18:26 | -1.15498 | -35.13770 | 32915 ft | 502 kts | 29° |
| 2026-05-07 18:27 | -1.09377 | -35.10411 | 32916 ft | 502 kts | 29° |
| 2026-05-07 18:27 | -1.03253 | -35.07051 | 32913 ft | 502 kts | 29° |
| 2026-05-07 18:28 | -0.97125 | -35.03688 | 32918 ft | 502 kts | 29° |
| 2026-05-07 18:28 | -0.91007 | -35.00331 | 32913 ft | 501 kts | 29° |
| 2026-05-07 18:29 | -0.84895 | -34.96977 | 32912 ft | 500 kts | 29° |
| 2026-05-07 18:29 | -0.78840 | -34.93655 | 32911 ft | 499 kts | 29° |
| 2026-05-07 18:30 | -0.72763 | -34.90321 | 32910 ft | 498 kts | 29° |
| 2026-05-07 18:30 | -0.66697 | -34.86993 | 32911 ft | 497 kts | 29° |
| 2026-05-07 18:31 | -0.60633 | -34.83666 | 32913 ft | 497 kts | 29° |
| 2026-05-07 18:31 | -0.54583 | -34.80347 | 32914 ft | 496 kts | 29° |
| 2026-05-07 18:32 | -0.48524 | -34.77024 | 32911 ft | 496 kts | 29° |
| 2026-05-07 18:32 | -0.42470 | -34.73704 | 32914 ft | 497 kts | 29° |
| 2026-05-07 18:33 | -0.36407 | -34.70376 | 32911 ft | 497 kts | 28° |
| 2026-05-07 18:33 | -0.30340 | -34.67048 | 32913 ft | 498 kts | 28° |
| 2026-05-07 18:34 | -0.24262 | -34.63715 | 32912 ft | 498 kts | 28° |
| 2026-05-07 18:34 | -0.18179 | -34.60379 | 32909 ft | 499 kts | 28° |
| 2026-05-07 18:35 | -0.12096 | -34.57041 | 32912 ft | 499 kts | 28° |
| 2026-05-07 18:35 | -0.06009 | -34.53701 | 32910 ft | 499 kts | 28° |
| 2026-05-07 18:36 | 0.00039 | -34.50383 | 32908 ft | 499 kts | 28° |
| 2026-05-07 18:36 | 0.06157 | -34.47027 | 32907 ft | 499 kts | 28° |
| 2026-05-07 18:37 | 0.12200 | -34.43713 | 32908 ft | 499 kts | 28° |
| 2026-05-07 18:37 | 0.18285 | -34.40375 | 32905 ft | 499 kts | 28° |
| 2026-05-07 18:38 | 0.24367 | -34.37038 | 32906 ft | 499 kts | 28° |
| 2026-05-07 18:38 | 0.30463 | -34.33694 | 32903 ft | 500 kts | 28° |
| 2026-05-07 18:39 | 0.36572 | -34.30343 | 32903 ft | 501 kts | 29° |
| 2026-05-07 18:39 | 0.42686 | -34.26989 | 32905 ft | 502 kts | 29° |
| 2026-05-07 18:40 | 0.48816 | -34.23626 | 32904 ft | 503 kts | 29° |
| 2026-05-07 18:40 | 0.54957 | -34.20257 | 32904 ft | 503 kts | 29° |
| 2026-05-07 18:41 | 0.61086 | -34.16894 | 32905 ft | 503 kts | 29° |
| 2026-05-07 18:41 | 0.67218 | -34.13530 | 32903 ft | 502 kts | 29° |
| 2026-05-07 18:42 | 0.73298 | -34.10194 | 32906 ft | 502 kts | 29° |
| 2026-05-07 18:42 | 0.79423 | -34.06832 | 32908 ft | 502 kts | 29° |
| 2026-05-07 18:43 | 0.85545 | -34.03473 | 32905 ft | 501 kts | 29° |
| 2026-05-07 18:43 | 0.91656 | -34.00120 | 32904 ft | 501 kts | 29° |
| 2026-05-07 18:44 | 0.97769 | -33.96764 | 32903 ft | 501 kts | 29° |
| 2026-05-07 18:44 | 1.03876 | -33.93411 | 32903 ft | 501 kts | 29° |
| 2026-05-07 18:45 | 1.09987 | -33.90055 | 32906 ft | 501 kts | 29° |
| 2026-05-07 18:45 | 1.16056 | -33.86722 | 32901 ft | 501 kts | 29° |
| 2026-05-07 18:46 | 1.22158 | -33.83371 | 32900 ft | 501 kts | 29° |
| 2026-05-07 18:46 | 1.28266 | -33.80016 | 32896 ft | 501 kts | 29° |
| 2026-05-07 18:47 | 1.34379 | -33.76659 | 32899 ft | 501 kts | 29° |
| 2026-05-07 18:47 | 1.40489 | -33.73303 | 32897 ft | 501 kts | 29° |
| 2026-05-07 18:48 | 1.46597 | -33.69948 | 32901 ft | 501 kts | 29° |
| 2026-05-07 18:48 | 1.52711 | -33.66589 | 32899 ft | 501 kts | 29° |
| 2026-05-07 18:49 | 1.58824 | -33.63231 | 32897 ft | 501 kts | 29° |
| 2026-05-07 18:49 | 1.64937 | -33.59872 | 32898 ft | 501 kts | 29° |
| 2026-05-07 18:50 | 1.71046 | -33.56515 | 32897 ft | 501 kts | 29° |
| 2026-05-07 18:50 | 1.77116 | -33.53179 | 32899 ft | 501 kts | 29° |
| 2026-05-07 18:51 | 1.83224 | -33.49823 | 32899 ft | 501 kts | 29° |
| 2026-05-07 18:51 | 1.89336 | -33.46463 | 32901 ft | 501 kts | 29° |
| 2026-05-07 18:52 | 1.95444 | -33.43104 | 32896 ft | 501 kts | 29° |
| 2026-05-07 18:52 | 2.01544 | -33.39749 | 32896 ft | 501 kts | 29° |
| 2026-05-07 18:53 | 2.07656 | -33.36388 | 32899 ft | 501 kts | 29° |
| 2026-05-07 18:53 | 2.13762 | -33.33029 | 32897 ft | 501 kts | 29° |
| 2026-05-07 18:54 | 2.19868 | -33.29670 | 32897 ft | 501 kts | 29° |
| 2026-05-07 18:54 | 2.25936 | -33.26332 | 32898 ft | 501 kts | 29° |
| 2026-05-07 18:55 | 2.32044 | -33.22972 | 32900 ft | 501 kts | 29° |
| 2026-05-07 18:55 | 2.38150 | -33.19612 | 32898 ft | 501 kts | 29° |
| 2026-05-07 18:56 | 2.44258 | -33.16251 | 32898 ft | 501 kts | 29° |
| 2026-05-07 18:56 | 2.50367 | -33.12889 | 32898 ft | 501 kts | 29° |
| 2026-05-07 18:57 | 2.56476 | -33.09526 | 32900 ft | 501 kts | 29° |
| 2026-05-07 18:57 | 2.62583 | -33.06164 | 32902 ft | 501 kts | 29° |
| 2026-05-07 18:58 | 2.68676 | -33.02810 | 32899 ft | 501 kts | 29° |
| 2026-05-07 18:58 | 2.74794 | -32.99442 | 32898 ft | 502 kts | 29° |
| 2026-05-07 18:59 | 2.80908 | -32.96075 | 32900 ft | 502 kts | 29° |
| 2026-05-07 18:59 | 2.87029 | -32.92704 | 32896 ft | 502 kts | 29° |
| 2026-05-07 19:00 | 2.93151 | -32.89332 | 32896 ft | 502 kts | 29° |
| 2026-05-07 19:00 | 2.99279 | -32.85956 | 32896 ft | 502 kts | 29° |
| 2026-05-07 19:01 | 3.05401 | -32.82583 | 32894 ft | 503 kts | 29° |
| 2026-05-07 19:01 | 3.11527 | -32.79207 | 32892 ft | 503 kts | 29° |
| 2026-05-07 19:02 | 3.17665 | -32.75825 | 32896 ft | 503 kts | 29° |
| 2026-05-07 19:02 | 3.23790 | -32.72449 | 32894 ft | 503 kts | 29° |
| 2026-05-07 19:03 | 3.29878 | -32.69092 | 32899 ft | 503 kts | 29° |
| 2026-05-07 19:03 | 3.36002 | -32.65715 | 32900 ft | 503 kts | 29° |
| 2026-05-07 19:04 | 3.42133 | -32.62334 | 32895 ft | 503 kts | 29° |
| 2026-05-07 19:04 | 3.48258 | -32.58960 | 32895 ft | 502 kts | 29° |
| 2026-05-07 19:05 | 3.54388 | -32.55586 | 32896 ft | 502 kts | 29° |
| 2026-05-07 19:05 | 3.60504 | -32.52218 | 32897 ft | 502 kts | 29° |
| 2026-05-07 19:06 | 3.66626 | -32.48845 | 32897 ft | 502 kts | 29° |
| 2026-05-07 19:06 | 3.74762 | -32.44362 | 32895 ft | 501 kts | 29° |
| 2026-05-07 19:07 | 3.80875 | -32.40992 | 32898 ft | 501 kts | 29° |
| 2026-05-07 19:07 | 3.86987 | -32.37623 | 32894 ft | 501 kts | 29° |
| 2026-05-07 19:08 | 3.93096 | -32.34255 | 32894 ft | 501 kts | 29° |
| 2026-05-07 19:08 | 3.99206 | -32.30886 | 32899 ft | 501 kts | 29° |
| 2026-05-07 19:09 | 4.05317 | -32.27515 | 32899 ft | 501 kts | 29° |
| 2026-05-07 19:09 | 4.11424 | -32.24146 | 32899 ft | 501 kts | 29° |
| 2026-05-07 19:10 | 4.17539 | -32.20772 | 32900 ft | 501 kts | 29° |
| 2026-05-07 19:10 | 4.23655 | -32.17397 | 32900 ft | 502 kts | 29° |
| 2026-05-07 19:11 | 4.29731 | -32.14044 | 32899 ft | 502 kts | 29° |
| 2026-05-07 19:11 | 4.35854 | -32.10664 | 32904 ft | 502 kts | 29° |
| 2026-05-07 19:12 | 4.41972 | -32.07286 | 32901 ft | 502 kts | 29° |
| 2026-05-07 19:12 | 4.48100 | -32.03902 | 32901 ft | 502 kts | 29° |
| 2026-05-07 19:13 | 4.54219 | -32.00522 | 32902 ft | 502 kts | 29° |
| 2026-05-07 19:13 | 4.60335 | -31.97143 | 32903 ft | 502 kts | 29° |
| 2026-05-07 19:14 | 4.66448 | -31.93765 | 32902 ft | 502 kts | 29° |
| 2026-05-07 19:14 | 4.72528 | -31.90405 | 32902 ft | 502 kts | 29° |
| 2026-05-07 19:15 | 4.78629 | -31.87032 | 32901 ft | 502 kts | 28° |
| 2026-05-07 19:15 | 4.84747 | -31.83649 | 32902 ft | 502 kts | 28° |
| 2026-05-07 19:16 | 4.90865 | -31.80266 | 32902 ft | 502 kts | 28° |
| 2026-05-07 19:16 | 4.96978 | -31.76884 | 32901 ft | 502 kts | 28° |
| 2026-05-07 19:17 | 5.03098 | -31.73498 | 32904 ft | 502 kts | 28° |
| 2026-05-07 19:17 | 5.09218 | -31.70112 | 32903 ft | 502 kts | 28° |
| 2026-05-07 19:18 | 5.15335 | -31.66725 | 32903 ft | 502 kts | 28° |
| 2026-05-07 19:18 | 5.21449 | -31.63340 | 32904 ft | 502 kts | 28° |
| 2026-05-07 19:19 | 5.27557 | -31.59929 | 32906 ft | 502 kts | 29° |
| 2026-05-07 19:19 | 5.33612 | -31.56518 | 32908 ft | 502 kts | 29° |
| 2026-05-07 19:20 | 5.39708 | -31.53084 | 32906 ft | 502 kts | 29° |
| 2026-05-07 19:20 | 5.45808 | -31.49652 | 32906 ft | 502 kts | 29° |
| 2026-05-07 19:21 | 5.51906 | -31.46223 | 32910 ft | 502 kts | 29° |
| 2026-05-07 19:21 | 5.58004 | -31.42793 | 32909 ft | 502 kts | 29° |
| 2026-05-07 19:22 | 5.64106 | -31.39359 | 32909 ft | 502 kts | 29° |
| 2026-05-07 19:22 | 5.70208 | -31.35925 | 32912 ft | 502 kts | 29° |
| 2026-05-07 19:23 | 5.76310 | -31.32490 | 32913 ft | 502 kts | 29° |
| 2026-05-07 19:23 | 5.82368 | -31.29079 | 32911 ft | 503 kts | 29° |
| 2026-05-07 19:24 | 5.88476 | -31.25638 | 32915 ft | 503 kts | 29° |
| 2026-05-07 19:24 | 5.94575 | -31.22202 | 32911 ft | 503 kts | 28° |
| 2026-05-07 19:25 | 6.00677 | -31.18764 | 32912 ft | 503 kts | 28° |
| 2026-05-07 19:25 | 6.06780 | -31.15323 | 32914 ft | 503 kts | 28° |
| 2026-05-07 19:26 | 6.12884 | -31.11882 | 32914 ft | 503 kts | 28° |
| 2026-05-07 19:26 | 6.18989 | -31.08439 | 32915 ft | 503 kts | 28° |
| 2026-05-07 19:27 | 6.25086 | -31.04999 | 32920 ft | 503 kts | 28° |
| 2026-05-07 19:27 | 6.31150 | -31.01577 | 32915 ft | 503 kts | 28° |
| 2026-05-07 19:28 | 6.37250 | -30.98134 | 32920 ft | 503 kts | 28° |
| 2026-05-07 19:28 | 6.43351 | -30.94690 | 32917 ft | 503 kts | 28° |
| 2026-05-07 19:29 | 6.49453 | -30.91244 | 32918 ft | 503 kts | 28° |
| 2026-05-07 19:29 | 6.55555 | -30.87796 | 32917 ft | 503 kts | 28° |
| 2026-05-07 19:30 | 6.61654 | -30.84350 | 32917 ft | 503 kts | 28° |
| 2026-05-07 19:30 | 6.67753 | -30.80903 | 32917 ft | 503 kts | 28° |
| 2026-05-07 19:31 | 6.73858 | -30.77451 | 32918 ft | 503 kts | 28° |
| 2026-05-07 19:31 | 6.79967 | -30.73996 | 32917 ft | 504 kts | 28° |
| 2026-05-07 19:32 | 6.86075 | -30.70541 | 32919 ft | 504 kts | 28° |
| 2026-05-07 19:32 | 6.92193 | -30.67079 | 32920 ft | 505 kts | 28° |
| 2026-05-07 19:33 | 6.98322 | -30.63609 | 32921 ft | 505 kts | 28° |
| 2026-05-07 19:33 | 7.04404 | -30.60165 | 32921 ft | 505 kts | 28° |
| 2026-05-07 19:34 | 7.10535 | -30.56693 | 32922 ft | 505 kts | 28° |
| 2026-05-07 19:34 | 7.16660 | -30.53223 | 32921 ft | 505 kts | 28° |
| 2026-05-07 19:35 | 7.22788 | -30.49750 | 32918 ft | 505 kts | 28° |
| 2026-05-07 19:35 | 7.28902 | -30.46283 | 32925 ft | 504 kts | 28° |
| 2026-05-07 19:36 | 7.35020 | -30.42813 | 32926 ft | 504 kts | 28° |
| 2026-05-07 19:36 | 7.41091 | -30.39369 | 32925 ft | 504 kts | 28° |
| 2026-05-07 19:37 | 7.47206 | -30.35899 | 32925 ft | 504 kts | 28° |
| 2026-05-07 19:37 | 7.53317 | -30.32430 | 32925 ft | 504 kts | 28° |
| 2026-05-07 19:38 | 7.59431 | -30.28958 | 32931 ft | 504 kts | 28° |
| 2026-05-07 19:38 | 7.65541 | -30.25488 | 32925 ft | 504 kts | 28° |
| 2026-05-07 19:39 | 7.71654 | -30.22014 | 32929 ft | 504 kts | 28° |
| 2026-05-07 19:39 | 7.77765 | -30.18540 | 32928 ft | 504 kts | 28° |
| 2026-05-07 19:40 | 7.83885 | -30.15061 | 32929 ft | 505 kts | 28° |
| 2026-05-07 19:40 | 7.89966 | -30.11602 | 32934 ft | 505 kts | 28° |
| 2026-05-07 19:41 | 7.96128 | -30.08096 | 32931 ft | 505 kts | 28° |
| 2026-05-07 19:41 | 8.02213 | -30.04632 | 32928 ft | 506 kts | 28° |
| 2026-05-07 19:42 | 8.08348 | -30.01139 | 32930 ft | 506 kts | 28° |
| 2026-05-07 19:42 | 8.14490 | -29.97640 | 32933 ft | 506 kts | 28° |
| 2026-05-07 19:43 | 8.20633 | -29.94140 | 32932 ft | 507 kts | 28° |
| 2026-05-07 19:43 | 8.26743 | -29.90657 | 32931 ft | 507 kts | 28° |
| 2026-05-07 19:44 | 8.32887 | -29.87153 | 32933 ft | 508 kts | 28° |
| 2026-05-07 19:44 | 8.39045 | -29.83640 | 32931 ft | 508 kts | 28° |
| 2026-05-07 19:45 | 8.45203 | -29.80126 | 32930 ft | 508 kts | 28° |
| 2026-05-07 19:45 | 8.51367 | -29.76608 | 32934 ft | 509 kts | 28° |
| 2026-05-07 19:46 | 8.57527 | -29.73094 | 32933 ft | 509 kts | 28° |
| 2026-05-07 19:46 | 8.63703 | -29.69570 | 32940 ft | 509 kts | 28° |
| 2026-05-07 19:47 | 8.69875 | -29.66045 | 32940 ft | 510 kts | 28° |
| 2026-05-07 19:47 | 8.76047 | -29.62519 | 32937 ft | 510 kts | 28° |
| 2026-05-07 19:48 | 8.82226 | -29.58987 | 32938 ft | 510 kts | 28° |
| 2026-05-07 19:48 | 8.88399 | -29.55457 | 32939 ft | 510 kts | 28° |
| 2026-05-07 19:49 | 8.94579 | -29.51923 | 32939 ft | 510 kts | 27° |
| 2026-05-07 19:49 | 9.00719 | -29.48409 | 32938 ft | 510 kts | 27° |
| 2026-05-07 19:50 | 9.06905 | -29.44868 | 32939 ft | 510 kts | 27° |
| 2026-05-07 19:50 | 9.13090 | -29.41326 | 32942 ft | 511 kts | 27° |
| 2026-05-07 19:51 | 9.19280 | -29.37780 | 32938 ft | 511 kts | 27° |
| 2026-05-07 19:51 | 9.25471 | -29.34231 | 32944 ft | 511 kts | 27° |
| 2026-05-07 19:52 | 9.31621 | -29.30705 | 32944 ft | 511 kts | 27° |
| 2026-05-07 19:52 | 9.37817 | -29.27151 | 32946 ft | 512 kts | 27° |
| 2026-05-07 19:53 | 9.44016 | -29.23594 | 32945 ft | 512 kts | 27° |
| 2026-05-07 19:53 | 9.50225 | -29.20029 | 32945 ft | 512 kts | 27° |
| 2026-05-07 19:54 | 9.56422 | -29.16470 | 32945 ft | 513 kts | 27° |
| 2026-05-07 19:54 | 9.62632 | -29.12902 | 32949 ft | 513 kts | 27° |
| 2026-05-07 19:55 | 9.68840 | -29.09333 | 32949 ft | 513 kts | 27° |
| 2026-05-07 19:55 | 9.74004 | -29.06363 | 32948 ft | 513 kts | 27° |
| 2026-05-07 19:56 | 9.80218 | -29.02788 | 32948 ft | 513 kts | 27° |
| 2026-05-07 19:56 | 9.86427 | -28.99214 | 32954 ft | 514 kts | 27° |
| 2026-05-07 19:57 | 9.93653 | -28.95050 | 32950 ft | 514 kts | 27° |
| 2026-05-07 19:57 | 9.98863 | -28.92046 | 32952 ft | 514 kts | 27° |
| 2026-05-07 19:58 | 10.05083 | -28.88458 | 32951 ft | 514 kts | 27° |
| 2026-05-07 19:58 | 10.11263 | -28.84892 | 32951 ft | 514 kts | 27° |
| 2026-05-07 19:59 | 10.17526 | -28.81276 | 32954 ft | 515 kts | 27° |
| 2026-05-07 19:59 | 10.23714 | -28.77703 | 32954 ft | 515 kts | 27° |
| 2026-05-07 20:00 | 10.29983 | -28.74081 | 32954 ft | 515 kts | 27° |
| 2026-05-07 20:00 | 10.36170 | -28.70504 | 32955 ft | 515 kts | 27° |
| 2026-05-07 20:01 | 10.42407 | -28.66897 | 32954 ft | 516 kts | 27° |
| 2026-05-07 20:01 | 10.48641 | -28.63290 | 32951 ft | 516 kts | 27° |
| 2026-05-07 20:02 | 10.54887 | -28.59674 | 32961 ft | 516 kts | 27° |
| 2026-05-07 20:02 | 10.61125 | -28.56063 | 32955 ft | 516 kts | 27° |
| 2026-05-07 20:03 | 10.67370 | -28.52445 | 32964 ft | 517 kts | 27° |
| 2026-05-07 20:03 | 10.73618 | -28.48822 | 32959 ft | 517 kts | 27° |
| 2026-05-07 20:04 | 10.79832 | -28.45217 | 32962 ft | 517 kts | 27° |
| 2026-05-07 20:04 | 10.86082 | -28.41590 | 32950 ft | 518 kts | 27° |
| 2026-05-07 20:05 | 10.92342 | -28.37956 | 32949 ft | 518 kts | 27° |
| 2026-05-07 20:05 | 10.98594 | -28.34324 | 32955 ft | 518 kts | 26° |
| 2026-05-07 20:06 | 11.04850 | -28.30689 | 32968 ft | 518 kts | 26° |
| 2026-05-07 20:06 | 11.11108 | -28.27050 | 32973 ft | 518 kts | 26° |
| 2026-05-07 20:07 | 11.17370 | -28.23408 | 32956 ft | 518 kts | 26° |
| 2026-05-07 20:07 | 11.23632 | -28.19764 | 32957 ft | 518 kts | 26° |
| 2026-05-07 20:08 | 11.29891 | -28.16119 | 32963 ft | 518 kts | 26° |
| 2026-05-07 20:08 | 11.36111 | -28.12495 | 32961 ft | 519 kts | 26° |
| 2026-05-07 20:09 | 11.42387 | -28.08838 | 32960 ft | 519 kts | 26° |
| 2026-05-07 20:10 | 11.51805 | -28.03345 | 32969 ft | 520 kts | 26° |
| 2026-05-07 20:10 | 11.58092 | -27.99676 | 32965 ft | 521 kts | 26° |
| 2026-05-07 20:11 | 11.64379 | -27.96004 | 32965 ft | 521 kts | 26° |
| 2026-05-07 20:11 | 11.70674 | -27.92326 | 32964 ft | 521 kts | 26° |
| 2026-05-07 20:12 | 11.76972 | -27.88644 | 32966 ft | 522 kts | 25° |
| 2026-05-07 20:12 | 11.83231 | -27.84984 | 32970 ft | 522 kts | 25° |
| 2026-05-07 20:13 | 11.89532 | -27.81297 | 32969 ft | 522 kts | 25° |
| 2026-05-07 20:13 | 11.95835 | -27.77607 | 32969 ft | 522 kts | 25° |
| 2026-05-07 20:14 | 12.02131 | -27.73918 | 32971 ft | 522 kts | 25° |
| 2026-05-07 20:14 | 12.08429 | -27.70226 | 32971 ft | 522 kts | 25° |
| 2026-05-07 20:15 | 12.14725 | -27.66534 | 32971 ft | 522 kts | 25° |
| 2026-05-07 20:15 | 12.21023 | -27.62838 | 32970 ft | 521 kts | 25° |
| 2026-05-07 20:16 | 12.27311 | -27.59147 | 32969 ft | 521 kts | 25° |
| 2026-05-07 20:16 | 12.33601 | -27.55452 | 32971 ft | 521 kts | 25° |
| 2026-05-07 20:17 | 12.39850 | -27.51780 | 32971 ft | 521 kts | 25° |
| 2026-05-07 20:17 | 12.46141 | -27.48080 | 32970 ft | 521 kts | 25° |
| 2026-05-07 20:18 | 12.52434 | -27.44377 | 32974 ft | 521 kts | 25° |
| 2026-05-07 20:18 | 12.58724 | -27.40674 | 32975 ft | 522 kts | 25° |
| 2026-05-07 20:19 | 12.64986 | -27.36985 | 32975 ft | 522 kts | 25° |
| 2026-05-07 20:19 | 12.71285 | -27.33272 | 32971 ft | 522 kts | 25° |
| 2026-05-07 20:20 | 12.77587 | -27.29556 | 32980 ft | 523 kts | 25° |
| 2026-05-07 20:20 | 12.83886 | -27.25838 | 32976 ft | 523 kts | 25° |
| 2026-05-07 20:21 | 12.90193 | -27.22115 | 32977 ft | 523 kts | 25° |
| 2026-05-07 20:21 | 12.96495 | -27.18391 | 32976 ft | 523 kts | 25° |
| 2026-05-07 20:22 | 13.02799 | -27.14664 | 32979 ft | 523 kts | 25° |
| 2026-05-07 20:22 | 13.09107 | -27.10934 | 32979 ft | 523 kts | 25° |
| 2026-05-07 20:23 | 13.15411 | -27.07202 | 32982 ft | 523 kts | 25° |
| 2026-05-07 20:23 | 13.21712 | -27.03471 | 32981 ft | 523 kts | 25° |
| 2026-05-07 20:24 | 13.28012 | -26.99737 | 32981 ft | 523 kts | 25° |
| 2026-05-07 20:24 | 13.34306 | -26.96006 | 32979 ft | 522 kts | 25° |
| 2026-05-07 20:25 | 13.40569 | -26.92290 | 32984 ft | 522 kts | 25° |
| 2026-05-07 20:25 | 13.46871 | -26.88548 | 32981 ft | 522 kts | 25° |
| 2026-05-07 20:26 | 13.53159 | -26.84813 | 32984 ft | 522 kts | 25° |
| 2026-05-07 20:26 | 13.59446 | -26.81077 | 32983 ft | 522 kts | 25° |
| 2026-05-07 20:27 | 13.65728 | -26.77340 | 32981 ft | 521 kts | 25° |
| 2026-05-07 20:27 | 13.72001 | -26.73607 | 32971 ft | 521 kts | 25° |
| 2026-05-07 20:28 | 13.78268 | -26.69875 | 32991 ft | 521 kts | 25° |
| 2026-05-07 20:28 | 13.84538 | -26.66139 | 32992 ft | 520 kts | 25° |
| 2026-05-07 20:29 | 13.90809 | -26.62400 | 32983 ft | 520 kts | 25° |
| 2026-05-07 20:29 | 13.97073 | -26.58663 | 32981 ft | 520 kts | 25° |
| 2026-05-07 20:30 | 14.03328 | -26.54928 | 32984 ft | 520 kts | 25° |
| 2026-05-07 20:30 | 14.07952 | -26.52166 | 32983 ft | 519 kts | 25° |
| 2026-05-07 20:31 | 14.14087 | -26.48499 | 32988 ft | 519 kts | 25° |
| 2026-05-07 20:31 | 14.17803 | -26.46277 | 32987 ft | 519 kts | 25° |
| 2026-05-07 20:32 | 14.24086 | -26.42520 | 33133 ft | 526 kts | 25° |